createdAt,value
2022-09-04T00:03:43.026Z,1.40
2022-09-04T00:08:57.620Z,1.40
2022-09-04T00:14:03.665Z,1.20
2022-09-04T00:19:15.069Z,1.23
2022-09-04T00:24:20.335Z,1.38
2022-09-04T00:29:30.842Z,1.30
2022-09-04T00:34:55.018Z,1.30
2022-09-04T00:40:02.456Z,1.40
2022-09-04T00:45:16.906Z,1.20
2022-09-04T00:50:40.221Z,1.40
2022-09-04T00:55:56.724Z,1.60
2022-09-04T01:01:01.251Z,1.38
2022-09-04T01:06:32.849Z,1.27
2022-09-04T01:11:43.168Z,1.20
2022-09-04T01:16:51.966Z,1.10
2022-09-04T01:22:25.060Z,1.30
2022-09-04T01:27:33.710Z,1.10
2022-09-04T01:32:57.909Z,1.30
2022-09-04T01:38:09.106Z,1.40
2022-09-04T01:43:17.504Z,1.02
2022-09-04T01:48:28.634Z,1.20
2022-09-04T01:53:36.310Z,1.10
2022-09-04T01:58:47.543Z,1.20
2022-09-04T02:03:58.170Z,1.10
2022-09-04T02:09:19.346Z,1.20
2022-09-04T02:14:35.413Z,1.13
2022-09-04T02:19:51.968Z,1.20
2022-09-04T02:25:05.332Z,1.40
2022-09-04T02:30:13.641Z,1.30
2022-09-04T02:35:23.871Z,1.60
2022-09-04T02:40:35.217Z,1.38
2022-09-04T02:45:46.867Z,1.30
2022-09-04T02:51:04.431Z,1.20
2022-09-04T02:56:31.290Z,1.38
2022-09-04T03:01:40.895Z,1.23
2022-09-04T03:06:51.762Z,1.25
2022-09-04T03:11:58.847Z,1.30
2022-09-04T03:17:09.914Z,1.33
2022-09-04T03:22:19.382Z,1.10
2022-09-04T03:27:22.991Z,1.00
2022-09-04T03:32:30.590Z,1.25
2022-09-04T03:37:48.217Z,1.50
2022-09-04T03:43:07.653Z,1.63
2022-09-04T03:48:26.846Z,1.40
2022-09-04T03:53:41.056Z,1.92
2022-09-04T03:58:53.486Z,1.45
2022-09-04T04:04:21.575Z,1.45
2022-09-04T04:09:50.549Z,1.40
2022-09-04T04:15:07.863Z,1.48
2022-09-04T04:20:22.939Z,1.50
2022-09-04T04:25:40.751Z,1.50
2022-09-04T04:30:50.137Z,1.30
2022-09-04T04:36:05.305Z,1.67
2022-09-04T04:41:58.730Z,1.42
2022-09-04T04:47:15.627Z,1.52
2022-09-04T04:52:30.284Z,1.35
2022-09-04T04:57:45.406Z,1.40
2022-09-04T05:03:01.739Z,1.10
2022-09-04T05:08:17.396Z,1.40
2022-09-04T05:13:28.264Z,1.45
2022-09-04T05:18:36.366Z,1.35
2022-09-04T05:23:48.010Z,1.45
2022-09-04T05:29:00.473Z,1.50
2022-09-04T05:34:09.606Z,1.50
2022-09-04T05:39:20.763Z,1.50
2022-09-04T05:44:39.902Z,1.40
2022-09-04T05:55:10.299Z,1.30
2022-09-04T06:00:16.954Z,1.20
2022-09-04T06:05:28.631Z,1.40
2022-09-04T06:10:47.200Z,1.50
2022-09-04T06:21:21.108Z,1.60
2022-09-04T06:26:41.406Z,1.38
2022-09-04T06:31:58.129Z,1.40
2022-09-04T06:37:14.982Z,1.33
2022-09-04T06:42:54.814Z,1.40
2022-09-04T06:48:09.564Z,1.50
2022-09-04T06:53:21.330Z,1.50
2022-09-04T06:59:01.631Z,1.33
2022-09-04T07:04:14.189Z,1.67
2022-09-04T07:09:21.875Z,1.50
2022-09-04T07:14:59.256Z,1.63
2022-09-04T07:20:18.291Z,1.60
2022-09-04T07:25:27.509Z,1.60
2022-09-04T07:30:35.629Z,1.40
2022-09-04T07:35:44.467Z,1.50
2022-09-04T07:40:53.246Z,1.70
2022-09-04T07:46:06.195Z,1.83
2022-09-04T07:51:14.175Z,1.70
2022-09-04T07:56:26.229Z,1.65
2022-09-04T08:02:01.733Z,2.10
2022-09-04T08:07:11.474Z,2.10
2022-09-04T08:12:44.794Z,2.10
2022-09-04T08:18:12.281Z,2.72
2022-09-04T08:23:43.124Z,2.35
2022-09-04T08:29:03.768Z,2.40
2022-09-04T08:34:46.103Z,2.72
2022-09-04T08:40:02.584Z,2.78
2022-09-04T08:45:42.386Z,3.00
2022-09-04T08:51:30.508Z,2.95
2022-09-04T08:56:43.803Z,3.08
2022-09-04T09:02:18.771Z,2.50
2022-09-04T09:07:49.305Z,2.97
2022-09-04T09:13:34.680Z,2.85
2022-09-04T09:18:40.624Z,2.90
2022-09-04T09:24:13.505Z,2.80
2022-09-04T09:29:42.334Z,2.90
2022-09-04T09:35:23.664Z,3.33
2022-09-04T09:41:03.309Z,2.80
2022-09-04T09:46:49.903Z,2.88
2022-09-04T09:52:22.552Z,2.78
2022-09-04T09:58:07.089Z,2.90
2022-09-04T10:03:45.211Z,2.55
2022-09-04T10:09:16.169Z,2.90
2022-09-04T10:14:56.383Z,2.55
2022-09-04T10:20:36.150Z,2.47
2022-09-04T10:26:11.068Z,2.40
2022-09-04T10:31:44.779Z,2.40
2022-09-04T10:37:00.192Z,2.78
2022-09-04T10:42:09.764Z,2.50
2022-09-04T10:47:37.668Z,2.30
2022-09-04T10:53:06.396Z,2.58
2022-09-04T10:58:30.402Z,2.33
2022-09-04T11:03:48.632Z,2.13
2022-09-04T11:09:06.821Z,2.40
2022-09-04T11:14:54.112Z,2.40
2022-09-04T11:20:36.353Z,1.85
2022-09-04T11:26:06.770Z,2.25
2022-09-04T11:31:31.006Z,1.90
2022-09-04T11:37:18.732Z,2.30
2022-09-04T11:42:46.794Z,2.20
2022-09-04T11:48:21.403Z,2.25
2022-09-04T11:53:42.396Z,2.30
2022-09-04T11:59:06.491Z,2.22
2022-09-04T12:04:31.647Z,2.60
2022-09-04T12:09:49.180Z,2.30
2022-09-04T12:15:32.546Z,2.35
2022-09-04T12:21:01.152Z,2.40
2022-09-04T12:26:26.548Z,2.13
2022-09-04T12:31:54.657Z,2.30
2022-09-04T12:37:23.013Z,2.03
2022-09-04T12:47:46.903Z,2.30
2022-09-04T12:53:25.628Z,2.13
2022-09-04T12:58:42.906Z,2.30
2022-09-04T13:03:59.862Z,2.17
2022-09-04T13:09:18.608Z,2.25
2022-09-04T13:14:42.060Z,2.28
2022-09-04T13:19:53.282Z,2.30
2022-09-04T13:25:08.512Z,2.03
2022-09-04T13:30:21.956Z,2.28
2022-09-04T13:35:50.032Z,2.10
2022-09-04T13:41:21.099Z,2.47
2022-09-04T13:46:30.084Z,2.40
2022-09-04T13:51:39.845Z,2.22
2022-09-04T13:56:51.203Z,2.33
2022-09-04T14:01:58.317Z,2.28
2022-09-04T14:07:07.043Z,2.03
2022-09-04T14:12:24.718Z,2.53
2022-09-04T14:17:36.800Z,4.43
2022-09-04T14:22:52.168Z,7.00
2022-09-04T14:28:04.018Z,3.13
2022-09-04T14:33:22.084Z,3.20
2022-09-04T14:38:59.374Z,2.05
2022-09-04T14:44:16.249Z,2.33
2022-09-04T14:49:24.487Z,2.63
2022-09-04T14:54:32.313Z,2.83
2022-09-04T14:59:39.051Z,2.60
2022-09-04T15:04:46.950Z,3.57
2022-09-04T15:09:52.136Z,2.60
2022-09-04T15:15:06.567Z,2.15
2022-09-04T15:20:18.971Z,2.40
2022-09-04T15:25:59.152Z,2.60
2022-09-04T15:31:15.917Z,2.83
2022-09-04T15:36:24.756Z,2.53
2022-09-04T15:41:41.073Z,2.20
2022-09-04T15:46:51.388Z,2.10
2022-09-04T15:52:03.667Z,2.00
2022-09-04T15:57:14.648Z,2.50
2022-09-04T16:02:27.486Z,2.45
2022-09-04T16:07:40.847Z,2.33
2022-09-04T16:12:53.518Z,2.05
2022-09-04T16:18:00.176Z,2.10
2022-09-04T16:23:08.449Z,2.00
2022-09-04T16:28:20.145Z,2.20
2022-09-04T16:33:28.392Z,2.13
2022-09-04T16:38:40.551Z,2.40
2022-09-04T16:44:08.871Z,2.70
2022-09-04T16:54:30.926Z,2.30
2022-09-04T16:59:42.205Z,2.65
2022-09-04T17:04:52.344Z,2.53
2022-09-04T17:10:02.801Z,2.40
2022-09-04T17:15:17.421Z,2.20
2022-09-04T17:21:48.048Z,2.20
2022-09-04T17:29:00.943Z,2.75
2022-09-04T17:31:29.914Z,2.08
2022-09-04T17:40:49.875Z,2.90
2022-09-04T17:42:10.804Z,2.60
2022-09-04T17:47:26.691Z,2.92
2022-09-04T17:52:32.603Z,3.22
2022-09-04T17:57:52.065Z,3.40
2022-09-04T18:03:02.529Z,3.20
2022-09-04T18:15:53.689Z,3.00
2022-09-04T18:22:06.439Z,2.97
2022-09-04T18:28:06.509Z,3.55
2022-09-04T18:53:38.329Z,3.15
2022-09-04T18:59:40.263Z,3.45
2022-09-04T19:05:03.078Z,3.05
2022-09-04T19:11:29.549Z,3.22
2022-09-04T20:43:21.460Z,3.53
2022-09-04T20:52:58.596Z,3.85
2022-09-04T20:54:12.225Z,3.13
2022-09-04T21:03:13.286Z,3.20
2022-09-04T21:04:55.697Z,3.15
2022-09-04T21:10:10.320Z,3.10
2022-09-04T21:15:27.524Z,3.22
2022-09-04T21:20:59.459Z,3.00
2022-09-04T21:26:15.781Z,3.13
2022-09-04T21:31:44.598Z,3.05
2022-09-04T21:36:54.618Z,2.92
2022-09-04T21:42:16.566Z,2.70
2022-09-04T21:47:56.070Z,2.97
2022-09-04T21:53:35.003Z,2.45
2022-09-04T22:02:41.705Z,2.58
2022-09-04T22:04:44.723Z,2.03
2022-09-04T22:13:33.048Z,2.60
2022-09-04T22:15:38.292Z,2.40
2022-09-04T22:20:53.982Z,2.10
2022-09-04T22:26:23.879Z,2.88
2022-09-04T22:31:50.606Z,2.33
2022-09-04T22:37:23.863Z,2.28
2022-09-04T22:43:04.705Z,2.50
2022-09-04T22:48:28.256Z,2.65
2022-09-04T22:54:07.255Z,2.88
2022-09-04T23:05:05.231Z,2.55
2022-09-04T23:13:44.792Z,2.35
2022-09-04T23:16:05.871Z,2.30
2022-09-04T23:26:37.041Z,2.33
2022-09-04T23:27:34.088Z,2.47
2022-09-04T23:33:32.093Z,2.45
2022-09-04T23:39:16.843Z,2.60
2022-09-04T23:45:03.646Z,2.60
2022-09-04T23:50:15.809Z,2.03
2022-09-04T23:55:45.057Z,2.25
